<?xml version="1.0" encoding="UTF-8" standalone="no" ?>
<gpx xmlns="http://www.topografix.com/GPX/1/1" xmlns:xsi="http://www.w3.org/2001/XMLSchema-instance" xsi:schemaLocation="http://www.topografix.com/GPX/1/1 http://www.topografix.com/GPX/1/1/gpx.xsd" version="1.1" creator="VisuGPX - https://www.visugpx.com">
  <metadata>
    <name>Rando-resto Belves 18/05/2025 à 08:54</name>
  </metadata>
  <wpt lat="44.77678" lon="1.00751">
    <ele>232</ele>
    <name><![CDATA[Point de passage 1]]></name>
    <type><![CDATA[GENERIC]]></type>
  </wpt>
  <wpt lat="44.77689" lon="1.00793">
    <ele>247</ele>
    <name><![CDATA[Point de passage 2]]></name>
    <type><![CDATA[GENERIC]]></type>
  </wpt>
  <trk>
    <name><![CDATA[Randonnée du 18/05/2025 à 08:54]]></name>
    <trkseg>
      <trkpt lat="44.77678" lon="1.00751">
        <ele>232</ele>
        <time>2025-05-18T06:54:05.000Z</time>
      </trkpt>
      <trkpt lat="44.77689" lon="1.00756">
        <ele>249</ele>
        <time>2025-05-18T06:54:08.000Z</time>
      </trkpt>
      <trkpt lat="44.77688" lon="1.0073">
        <ele>230</ele>
        <time>2025-05-18T06:54:26.000Z</time>
      </trkpt>
      <trkpt lat="44.77696" lon="1.00701">
        <ele>229</ele>
        <time>2025-05-18T06:54:53.000Z</time>
      </trkpt>
      <trkpt lat="44.77706" lon="1.00672">
        <ele>231</ele>
        <time>2025-05-18T06:55:17.000Z</time>
      </trkpt>
      <trkpt lat="44.77702" lon="1.00643">
        <ele>231</ele>
        <time>2025-05-18T06:55:35.000Z</time>
      </trkpt>
      <trkpt lat="44.77685" lon="1.0062">
        <ele>228</ele>
        <time>2025-05-18T06:55:56.000Z</time>
      </trkpt>
      <trkpt lat="44.77666" lon="1.00602">
        <ele>228</ele>
        <time>2025-05-18T06:56:14.000Z</time>
      </trkpt>
      <trkpt lat="44.77654" lon="1.00576">
        <ele>228</ele>
        <time>2025-05-18T06:56:59.000Z</time>
      </trkpt>
      <trkpt lat="44.77652" lon="1.00546">
        <ele>227</ele>
        <time>2025-05-18T06:57:26.000Z</time>
      </trkpt>
      <trkpt lat="44.77668" lon="1.00528">
        <ele>227</ele>
        <time>2025-05-18T06:57:53.000Z</time>
      </trkpt>
      <trkpt lat="44.77689" lon="1.00513">
        <ele>227</ele>
        <time>2025-05-18T06:58:17.000Z</time>
      </trkpt>
      <trkpt lat="44.77706" lon="1.0049">
        <ele>227</ele>
        <time>2025-05-18T06:58:38.000Z</time>
      </trkpt>
      <trkpt lat="44.77725" lon="1.00471">
        <ele>228</ele>
        <time>2025-05-18T06:59:02.000Z</time>
      </trkpt>
      <trkpt lat="44.77744" lon="1.00449">
        <ele>228</ele>
        <time>2025-05-18T06:59:29.000Z</time>
      </trkpt>
      <trkpt lat="44.77763" lon="1.00428">
        <ele>229</ele>
        <time>2025-05-18T06:59:53.000Z</time>
      </trkpt>
      <trkpt lat="44.77779" lon="1.00405">
        <ele>230</ele>
        <time>2025-05-18T07:00:17.000Z</time>
      </trkpt>
      <trkpt lat="44.77775" lon="1.00376">
        <ele>230</ele>
        <time>2025-05-18T07:02:02.000Z</time>
      </trkpt>
      <trkpt lat="44.7776" lon="1.00348">
        <ele>231</ele>
        <time>2025-05-18T07:02:26.000Z</time>
      </trkpt>
      <trkpt lat="44.77747" lon="1.0032">
        <ele>231</ele>
        <time>2025-05-18T07:03:05.000Z</time>
      </trkpt>
      <trkpt lat="44.77735" lon="1.00292">
        <ele>232</ele>
        <time>2025-05-18T07:03:26.000Z</time>
      </trkpt>
      <trkpt lat="44.77716" lon="1.00273">
        <ele>232</ele>
        <time>2025-05-18T07:03:47.000Z</time>
      </trkpt>
      <trkpt lat="44.77694" lon="1.00261">
        <ele>233</ele>
        <time>2025-05-18T07:04:08.000Z</time>
      </trkpt>
      <trkpt lat="44.77671" lon="1.00248">
        <ele>234</ele>
        <time>2025-05-18T07:04:32.000Z</time>
      </trkpt>
      <trkpt lat="44.77649" lon="1.00237">
        <ele>235</ele>
        <time>2025-05-18T07:04:56.000Z</time>
      </trkpt>
      <trkpt lat="44.77628" lon="1.00235">
        <ele>236</ele>
        <time>2025-05-18T07:10:49.000Z</time>
      </trkpt>
      <trkpt lat="44.77631" lon="1.00205">
        <ele>237</ele>
        <time>2025-05-18T07:11:39.000Z</time>
      </trkpt>
      <trkpt lat="44.77642" lon="1.00177">
        <ele>238</ele>
        <time>2025-05-18T07:11:54.000Z</time>
      </trkpt>
      <trkpt lat="44.77657" lon="1.00149">
        <ele>239</ele>
        <time>2025-05-18T07:12:15.000Z</time>
      </trkpt>
      <trkpt lat="44.77667" lon="1.0012">
        <ele>239</ele>
        <time>2025-05-18T07:12:33.000Z</time>
      </trkpt>
      <trkpt lat="44.77678" lon="1.00089">
        <ele>240</ele>
        <time>2025-05-18T07:12:54.000Z</time>
      </trkpt>
      <trkpt lat="44.77689" lon="1.0006">
        <ele>240</ele>
        <time>2025-05-18T07:13:15.000Z</time>
      </trkpt>
      <trkpt lat="44.77699" lon="1.00026">
        <ele>240</ele>
        <time>2025-05-18T07:13:39.000Z</time>
      </trkpt>
      <trkpt lat="44.77706" lon="0.99992">
        <ele>240</ele>
        <time>2025-05-18T07:13:57.000Z</time>
      </trkpt>
      <trkpt lat="44.77712" lon="0.99958">
        <ele>240</ele>
        <time>2025-05-18T07:14:21.000Z</time>
      </trkpt>
      <trkpt lat="44.77714" lon="0.99924">
        <ele>240</ele>
        <time>2025-05-18T07:14:45.000Z</time>
      </trkpt>
      <trkpt lat="44.77714" lon="0.99891">
        <ele>240</ele>
        <time>2025-05-18T07:15:03.000Z</time>
      </trkpt>
      <trkpt lat="44.7771" lon="0.99858">
        <ele>241</ele>
        <time>2025-05-18T07:15:24.000Z</time>
      </trkpt>
      <trkpt lat="44.77709" lon="0.99825">
        <ele>241</ele>
        <time>2025-05-18T07:15:42.000Z</time>
      </trkpt>
      <trkpt lat="44.7771" lon="0.99791">
        <ele>241</ele>
        <time>2025-05-18T07:16:03.000Z</time>
      </trkpt>
      <trkpt lat="44.77713" lon="0.99755">
        <ele>241</ele>
        <time>2025-05-18T07:16:24.000Z</time>
      </trkpt>
      <trkpt lat="44.77718" lon="0.99721">
        <ele>242</ele>
        <time>2025-05-18T07:16:42.000Z</time>
      </trkpt>
      <trkpt lat="44.77728" lon="0.99691">
        <ele>242</ele>
        <time>2025-05-18T07:17:03.000Z</time>
      </trkpt>
      <trkpt lat="44.77741" lon="0.99665">
        <ele>242</ele>
        <time>2025-05-18T07:17:21.000Z</time>
      </trkpt>
      <trkpt lat="44.77756" lon="0.9964">
        <ele>243</ele>
        <time>2025-05-18T07:17:42.000Z</time>
      </trkpt>
      <trkpt lat="44.77773" lon="0.9962">
        <ele>243</ele>
        <time>2025-05-18T07:19:33.000Z</time>
      </trkpt>
      <trkpt lat="44.77793" lon="0.99604">
        <ele>244</ele>
        <time>2025-05-18T07:19:54.000Z</time>
      </trkpt>
      <trkpt lat="44.77813" lon="0.99584">
        <ele>244</ele>
        <time>2025-05-18T07:20:12.000Z</time>
      </trkpt>
      <trkpt lat="44.77831" lon="0.99565">
        <ele>244</ele>
        <time>2025-05-18T07:20:33.000Z</time>
      </trkpt>
      <trkpt lat="44.77852" lon="0.9955">
        <ele>244</ele>
        <time>2025-05-18T07:20:54.000Z</time>
      </trkpt>
      <trkpt lat="44.77873" lon="0.99537">
        <ele>244</ele>
        <time>2025-05-18T07:21:12.000Z</time>
      </trkpt>
      <trkpt lat="44.77895" lon="0.99525">
        <ele>244</ele>
        <time>2025-05-18T07:21:33.000Z</time>
      </trkpt>
      <trkpt lat="44.77919" lon="0.99517">
        <ele>244</ele>
        <time>2025-05-18T07:21:54.000Z</time>
      </trkpt>
      <trkpt lat="44.77942" lon="0.99513">
        <ele>244</ele>
        <time>2025-05-18T07:22:12.000Z</time>
      </trkpt>
      <trkpt lat="44.77965" lon="0.99515">
        <ele>243</ele>
        <time>2025-05-18T07:22:30.000Z</time>
      </trkpt>
      <trkpt lat="44.77988" lon="0.99516">
        <ele>243</ele>
        <time>2025-05-18T07:22:48.000Z</time>
      </trkpt>
      <trkpt lat="44.78013" lon="0.99511">
        <ele>242</ele>
        <time>2025-05-18T07:23:09.000Z</time>
      </trkpt>
      <trkpt lat="44.78034" lon="0.99499">
        <ele>242</ele>
        <time>2025-05-18T07:23:36.000Z</time>
      </trkpt>
      <trkpt lat="44.78058" lon="0.99485">
        <ele>241</ele>
        <time>2025-05-18T07:23:57.000Z</time>
      </trkpt>
      <trkpt lat="44.7808" lon="0.99467">
        <ele>241</ele>
        <time>2025-05-18T07:24:18.000Z</time>
      </trkpt>
      <trkpt lat="44.78101" lon="0.99449">
        <ele>240</ele>
        <time>2025-05-18T07:24:39.000Z</time>
      </trkpt>
      <trkpt lat="44.78121" lon="0.99436">
        <ele>240</ele>
        <time>2025-05-18T07:24:57.000Z</time>
      </trkpt>
      <trkpt lat="44.78142" lon="0.99419">
        <ele>239</ele>
        <time>2025-05-18T07:25:18.000Z</time>
      </trkpt>
      <trkpt lat="44.78164" lon="0.99408">
        <ele>239</ele>
        <time>2025-05-18T07:25:39.000Z</time>
      </trkpt>
      <trkpt lat="44.78187" lon="0.99401">
        <ele>238</ele>
        <time>2025-05-18T07:26:00.000Z</time>
      </trkpt>
      <trkpt lat="44.7821" lon="0.99394">
        <ele>238</ele>
        <time>2025-05-18T07:26:21.000Z</time>
      </trkpt>
      <trkpt lat="44.78231" lon="0.99381">
        <ele>237</ele>
        <time>2025-05-18T07:26:36.000Z</time>
      </trkpt>
      <trkpt lat="44.7825" lon="0.99357">
        <ele>236</ele>
        <time>2025-05-18T07:26:54.000Z</time>
      </trkpt>
      <trkpt lat="44.78268" lon="0.99332">
        <ele>236</ele>
        <time>2025-05-18T07:27:15.000Z</time>
      </trkpt>
      <trkpt lat="44.78287" lon="0.99309">
        <ele>235</ele>
        <time>2025-05-18T07:27:42.000Z</time>
      </trkpt>
      <trkpt lat="44.78305" lon="0.99287">
        <ele>234</ele>
        <time>2025-05-18T07:28:03.000Z</time>
      </trkpt>
      <trkpt lat="44.78324" lon="0.99266">
        <ele>233</ele>
        <time>2025-05-18T07:28:30.000Z</time>
      </trkpt>
      <trkpt lat="44.78343" lon="0.99251">
        <ele>233</ele>
        <time>2025-05-18T07:28:51.000Z</time>
      </trkpt>
      <trkpt lat="44.78363" lon="0.99233">
        <ele>232</ele>
        <time>2025-05-18T07:29:15.000Z</time>
      </trkpt>
      <trkpt lat="44.78386" lon="0.99227">
        <ele>230</ele>
        <time>2025-05-18T07:29:39.000Z</time>
      </trkpt>
      <trkpt lat="44.78408" lon="0.99218">
        <ele>229</ele>
        <time>2025-05-18T07:30:00.000Z</time>
      </trkpt>
      <trkpt lat="44.7843" lon="0.99207">
        <ele>227</ele>
        <time>2025-05-18T07:30:21.000Z</time>
      </trkpt>
      <trkpt lat="44.78451" lon="0.99194">
        <ele>225</ele>
        <time>2025-05-18T07:30:42.000Z</time>
      </trkpt>
      <trkpt lat="44.78473" lon="0.99183">
        <ele>223</ele>
        <time>2025-05-18T07:31:03.000Z</time>
      </trkpt>
      <trkpt lat="44.78495" lon="0.99171">
        <ele>220</ele>
        <time>2025-05-18T07:31:27.000Z</time>
      </trkpt>
      <trkpt lat="44.78518" lon="0.99158">
        <ele>217</ele>
        <time>2025-05-18T07:31:51.000Z</time>
      </trkpt>
      <trkpt lat="44.78541" lon="0.99149">
        <ele>215</ele>
        <time>2025-05-18T07:32:12.000Z</time>
      </trkpt>
      <trkpt lat="44.78561" lon="0.99134">
        <ele>212</ele>
        <time>2025-05-18T07:32:36.000Z</time>
      </trkpt>
      <trkpt lat="44.78574" lon="0.99104">
        <ele>210</ele>
        <time>2025-05-18T07:32:57.000Z</time>
      </trkpt>
      <trkpt lat="44.78583" lon="0.99073">
        <ele>207</ele>
        <time>2025-05-18T07:33:15.000Z</time>
      </trkpt>
      <trkpt lat="44.78595" lon="0.99046">
        <ele>205</ele>
        <time>2025-05-18T07:33:36.000Z</time>
      </trkpt>
      <trkpt lat="44.78611" lon="0.99024">
        <ele>203</ele>
        <time>2025-05-18T07:33:57.000Z</time>
      </trkpt>
      <trkpt lat="44.78628" lon="0.99003">
        <ele>201</ele>
        <time>2025-05-18T07:34:18.000Z</time>
      </trkpt>
      <trkpt lat="44.78644" lon="0.98981">
        <ele>198</ele>
        <time>2025-05-18T07:34:39.000Z</time>
      </trkpt>
      <trkpt lat="44.78664" lon="0.98963">
        <ele>195</ele>
        <time>2025-05-18T07:35:00.000Z</time>
      </trkpt>
      <trkpt lat="44.78685" lon="0.9895">
        <ele>192</ele>
        <time>2025-05-18T07:35:21.000Z</time>
      </trkpt>
      <trkpt lat="44.78707" lon="0.98938">
        <ele>189</ele>
        <time>2025-05-18T07:35:45.000Z</time>
      </trkpt>
      <trkpt lat="44.78729" lon="0.98929">
        <ele>186</ele>
        <time>2025-05-18T07:36:12.000Z</time>
      </trkpt>
      <trkpt lat="44.7875" lon="0.98916">
        <ele>184</ele>
        <time>2025-05-18T07:39:09.000Z</time>
      </trkpt>
      <trkpt lat="44.78771" lon="0.98898">
        <ele>182</ele>
        <time>2025-05-18T07:39:33.000Z</time>
      </trkpt>
      <trkpt lat="44.78792" lon="0.9888">
        <ele>180</ele>
        <time>2025-05-18T07:39:54.000Z</time>
      </trkpt>
      <trkpt lat="44.78812" lon="0.98861">
        <ele>178</ele>
        <time>2025-05-18T07:40:18.000Z</time>
      </trkpt>
      <trkpt lat="44.78826" lon="0.98836">
        <ele>177</ele>
        <time>2025-05-18T07:40:48.000Z</time>
      </trkpt>
      <trkpt lat="44.78824" lon="0.98806">
        <ele>175</ele>
        <time>2025-05-18T07:41:06.000Z</time>
      </trkpt>
      <trkpt lat="44.78822" lon="0.98774">
        <ele>173</ele>
        <time>2025-05-18T07:41:27.000Z</time>
      </trkpt>
      <trkpt lat="44.78821" lon="0.9874">
        <ele>172</ele>
        <time>2025-05-18T07:41:48.000Z</time>
      </trkpt>
      <trkpt lat="44.78818" lon="0.98705">
        <ele>171</ele>
        <time>2025-05-18T07:44:15.000Z</time>
      </trkpt>
      <trkpt lat="44.78803" lon="0.98677">
        <ele>170</ele>
        <time>2025-05-18T07:44:36.000Z</time>
      </trkpt>
      <trkpt lat="44.78787" lon="0.98653">
        <ele>169</ele>
        <time>2025-05-18T07:44:54.000Z</time>
      </trkpt>
      <trkpt lat="44.78769" lon="0.98631">
        <ele>169</ele>
        <time>2025-05-18T07:45:15.000Z</time>
      </trkpt>
      <trkpt lat="44.7876" lon="0.98598">
        <ele>168</ele>
        <time>2025-05-18T07:45:33.000Z</time>
      </trkpt>
      <trkpt lat="44.78768" lon="0.98569">
        <ele>168</ele>
        <time>2025-05-18T07:45:54.000Z</time>
      </trkpt>
      <trkpt lat="44.7879" lon="0.98553">
        <ele>167</ele>
        <time>2025-05-18T07:46:12.000Z</time>
      </trkpt>
      <trkpt lat="44.78812" lon="0.98539">
        <ele>167</ele>
        <time>2025-05-18T07:46:30.000Z</time>
      </trkpt>
      <trkpt lat="44.78831" lon="0.98518">
        <ele>166</ele>
        <time>2025-05-18T07:46:51.000Z</time>
      </trkpt>
      <trkpt lat="44.7883" lon="0.98489">
        <ele>166</ele>
        <time>2025-05-18T07:47:33.000Z</time>
      </trkpt>
      <trkpt lat="44.78812" lon="0.98468">
        <ele>166</ele>
        <time>2025-05-18T07:48:12.000Z</time>
      </trkpt>
      <trkpt lat="44.78794" lon="0.98449">
        <ele>166</ele>
        <time>2025-05-18T07:48:39.000Z</time>
      </trkpt>
      <trkpt lat="44.78776" lon="0.9843">
        <ele>165</ele>
        <time>2025-05-18T07:49:24.000Z</time>
      </trkpt>
      <trkpt lat="44.78759" lon="0.98409">
        <ele>165</ele>
        <time>2025-05-18T07:49:42.000Z</time>
      </trkpt>
      <trkpt lat="44.78744" lon="0.98384">
        <ele>165</ele>
        <time>2025-05-18T07:50:00.000Z</time>
      </trkpt>
      <trkpt lat="44.78731" lon="0.98356">
        <ele>165</ele>
        <time>2025-05-18T07:50:21.000Z</time>
      </trkpt>
      <trkpt lat="44.78716" lon="0.98328">
        <ele>165</ele>
        <time>2025-05-18T07:50:39.000Z</time>
      </trkpt>
      <trkpt lat="44.78711" lon="0.98295">
        <ele>164</ele>
        <time>2025-05-18T07:51:00.000Z</time>
      </trkpt>
      <trkpt lat="44.78707" lon="0.98261">
        <ele>164</ele>
        <time>2025-05-18T07:51:18.000Z</time>
      </trkpt>
      <trkpt lat="44.78704" lon="0.98228">
        <ele>164</ele>
        <time>2025-05-18T07:51:36.000Z</time>
      </trkpt>
      <trkpt lat="44.78702" lon="0.98196">
        <ele>164</ele>
        <time>2025-05-18T07:51:54.000Z</time>
      </trkpt>
      <trkpt lat="44.78707" lon="0.98164">
        <ele>164</ele>
        <time>2025-05-18T07:52:27.000Z</time>
      </trkpt>
      <trkpt lat="44.78717" lon="0.98134">
        <ele>164</ele>
        <time>2025-05-18T07:52:48.000Z</time>
      </trkpt>
      <trkpt lat="44.78728" lon="0.98104">
        <ele>164</ele>
        <time>2025-05-18T07:53:18.000Z</time>
      </trkpt>
      <trkpt lat="44.78738" lon="0.98076">
        <ele>164</ele>
        <time>2025-05-18T07:53:39.000Z</time>
      </trkpt>
      <trkpt lat="44.78748" lon="0.98045">
        <ele>164</ele>
        <time>2025-05-18T07:54:06.000Z</time>
      </trkpt>
      <trkpt lat="44.78755" lon="0.98013">
        <ele>164</ele>
        <time>2025-05-18T07:54:33.000Z</time>
      </trkpt>
      <trkpt lat="44.78761" lon="0.97982">
        <ele>164</ele>
        <time>2025-05-18T07:54:54.000Z</time>
      </trkpt>
      <trkpt lat="44.78763" lon="0.97948">
        <ele>164</ele>
        <time>2025-05-18T07:55:15.000Z</time>
      </trkpt>
      <trkpt lat="44.78765" lon="0.97916">
        <ele>164</ele>
        <time>2025-05-18T07:55:39.000Z</time>
      </trkpt>
      <trkpt lat="44.78765" lon="0.97882">
        <ele>164</ele>
        <time>2025-05-18T07:56:03.000Z</time>
      </trkpt>
      <trkpt lat="44.78765" lon="0.9785">
        <ele>164</ele>
        <time>2025-05-18T07:56:27.000Z</time>
      </trkpt>
      <trkpt lat="44.78766" lon="0.97819">
        <ele>164</ele>
        <time>2025-05-18T07:56:48.000Z</time>
      </trkpt>
      <trkpt lat="44.78762" lon="0.97788">
        <ele>165</ele>
        <time>2025-05-18T07:57:12.000Z</time>
      </trkpt>
      <trkpt lat="44.78756" lon="0.97757">
        <ele>165</ele>
        <time>2025-05-18T07:57:39.000Z</time>
      </trkpt>
      <trkpt lat="44.78757" lon="0.97725">
        <ele>166</ele>
        <time>2025-05-18T07:58:00.000Z</time>
      </trkpt>
      <trkpt lat="44.7876" lon="0.97694">
        <ele>167</ele>
        <time>2025-05-18T07:58:57.000Z</time>
      </trkpt>
      <trkpt lat="44.78755" lon="0.97659">
        <ele>168</ele>
        <time>2025-05-18T08:02:55.000Z</time>
      </trkpt>
      <trkpt lat="44.78747" lon="0.97629">
        <ele>168</ele>
        <time>2025-05-18T08:03:19.000Z</time>
      </trkpt>
      <trkpt lat="44.78745" lon="0.97598">
        <ele>169</ele>
        <time>2025-05-18T08:04:04.000Z</time>
      </trkpt>
      <trkpt lat="44.7874" lon="0.97567">
        <ele>169</ele>
        <time>2025-05-18T08:04:43.000Z</time>
      </trkpt>
      <trkpt lat="44.78737" lon="0.97539">
        <ele>170</ele>
        <time>2025-05-18T08:05:04.000Z</time>
      </trkpt>
      <trkpt lat="44.78719" lon="0.97533">
        <ele>170</ele>
        <time>2025-05-18T08:05:31.000Z</time>
      </trkpt>
      <trkpt lat="44.78702" lon="0.97553">
        <ele>170</ele>
        <time>2025-05-18T08:06:07.000Z</time>
      </trkpt>
      <trkpt lat="44.78684" lon="0.97577">
        <ele>171</ele>
        <time>2025-05-18T08:06:31.000Z</time>
      </trkpt>
      <trkpt lat="44.78667" lon="0.97601">
        <ele>171</ele>
        <time>2025-05-18T08:06:52.000Z</time>
      </trkpt>
      <trkpt lat="44.78649" lon="0.97622">
        <ele>171</ele>
        <time>2025-05-18T08:07:19.000Z</time>
      </trkpt>
      <trkpt lat="44.78628" lon="0.97632">
        <ele>172</ele>
        <time>2025-05-18T08:07:49.000Z</time>
      </trkpt>
      <trkpt lat="44.78607" lon="0.97637">
        <ele>172</ele>
        <time>2025-05-18T08:08:34.000Z</time>
      </trkpt>
      <trkpt lat="44.7859" lon="0.97616">
        <ele>173</ele>
        <time>2025-05-18T08:09:16.000Z</time>
      </trkpt>
      <trkpt lat="44.78572" lon="0.97593">
        <ele>173</ele>
        <time>2025-05-18T08:09:49.000Z</time>
      </trkpt>
      <trkpt lat="44.78553" lon="0.97573">
        <ele>174</ele>
        <time>2025-05-18T08:10:19.000Z</time>
      </trkpt>
      <trkpt lat="44.78534" lon="0.97555">
        <ele>175</ele>
        <time>2025-05-18T08:10:43.000Z</time>
      </trkpt>
      <trkpt lat="44.78525" lon="0.97527">
        <ele>177</ele>
        <time>2025-05-18T08:11:13.000Z</time>
      </trkpt>
      <trkpt lat="44.78522" lon="0.97496">
        <ele>179</ele>
        <time>2025-05-18T08:11:49.000Z</time>
      </trkpt>
      <trkpt lat="44.78522" lon="0.97464">
        <ele>182</ele>
        <time>2025-05-18T08:12:16.000Z</time>
      </trkpt>
      <trkpt lat="44.78525" lon="0.97432">
        <ele>185</ele>
        <time>2025-05-18T08:12:43.000Z</time>
      </trkpt>
      <trkpt lat="44.78522" lon="0.974">
        <ele>188</ele>
        <time>2025-05-18T08:13:04.000Z</time>
      </trkpt>
      <trkpt lat="44.78519" lon="0.97367">
        <ele>191</ele>
        <time>2025-05-18T08:13:25.000Z</time>
      </trkpt>
      <trkpt lat="44.78518" lon="0.97334">
        <ele>193</ele>
        <time>2025-05-18T08:14:07.000Z</time>
      </trkpt>
      <trkpt lat="44.78516" lon="0.97301">
        <ele>195</ele>
        <time>2025-05-18T08:14:28.000Z</time>
      </trkpt>
      <trkpt lat="44.78512" lon="0.97269">
        <ele>197</ele>
        <time>2025-05-18T08:14:49.000Z</time>
      </trkpt>
      <trkpt lat="44.78507" lon="0.97237">
        <ele>198</ele>
        <time>2025-05-18T08:15:13.000Z</time>
      </trkpt>
      <trkpt lat="44.78506" lon="0.97204">
        <ele>199</ele>
        <time>2025-05-18T08:15:37.000Z</time>
      </trkpt>
      <trkpt lat="44.78497" lon="0.97176">
        <ele>200</ele>
        <time>2025-05-18T08:15:55.000Z</time>
      </trkpt>
      <trkpt lat="44.78484" lon="0.97147">
        <ele>201</ele>
        <time>2025-05-18T08:16:25.000Z</time>
      </trkpt>
      <trkpt lat="44.78468" lon="0.97123">
        <ele>202</ele>
        <time>2025-05-18T08:16:43.000Z</time>
      </trkpt>
      <trkpt lat="44.78446" lon="0.97113">
        <ele>203</ele>
        <time>2025-05-18T08:17:04.000Z</time>
      </trkpt>
      <trkpt lat="44.78426" lon="0.97099">
        <ele>204</ele>
        <time>2025-05-18T08:17:49.000Z</time>
      </trkpt>
      <trkpt lat="44.78404" lon="0.9709">
        <ele>205</ele>
        <time>2025-05-18T08:18:22.000Z</time>
      </trkpt>
      <trkpt lat="44.78383" lon="0.97077">
        <ele>206</ele>
        <time>2025-05-18T08:18:49.000Z</time>
      </trkpt>
      <trkpt lat="44.78363" lon="0.97062">
        <ele>206</ele>
        <time>2025-05-18T08:19:07.000Z</time>
      </trkpt>
      <trkpt lat="44.78341" lon="0.97049">
        <ele>207</ele>
        <time>2025-05-18T08:19:28.000Z</time>
      </trkpt>
      <trkpt lat="44.7832" lon="0.97035">
        <ele>207</ele>
        <time>2025-05-18T08:19:49.000Z</time>
      </trkpt>
      <trkpt lat="44.78297" lon="0.97029">
        <ele>208</ele>
        <time>2025-05-18T08:20:07.000Z</time>
      </trkpt>
      <trkpt lat="44.78275" lon="0.97033">
        <ele>208</ele>
        <time>2025-05-18T08:20:28.000Z</time>
      </trkpt>
      <trkpt lat="44.78253" lon="0.97044">
        <ele>208</ele>
        <time>2025-05-18T08:20:49.000Z</time>
      </trkpt>
      <trkpt lat="44.78232" lon="0.97058">
        <ele>209</ele>
        <time>2025-05-18T08:21:16.000Z</time>
      </trkpt>
      <trkpt lat="44.78227" lon="0.9709">
        <ele>209</ele>
        <time>2025-05-18T08:21:34.000Z</time>
      </trkpt>
      <trkpt lat="44.78227" lon="0.97126">
        <ele>209</ele>
        <time>2025-05-18T08:21:55.000Z</time>
      </trkpt>
      <trkpt lat="44.78226" lon="0.97159">
        <ele>209</ele>
        <time>2025-05-18T08:22:19.000Z</time>
      </trkpt>
      <trkpt lat="44.78221" lon="0.9719">
        <ele>210</ele>
        <time>2025-05-18T08:22:43.000Z</time>
      </trkpt>
      <trkpt lat="44.78214" lon="0.97224">
        <ele>210</ele>
        <time>2025-05-18T08:23:04.000Z</time>
      </trkpt>
      <trkpt lat="44.78204" lon="0.97257">
        <ele>210</ele>
        <time>2025-05-18T08:23:25.000Z</time>
      </trkpt>
      <trkpt lat="44.78196" lon="0.97288">
        <ele>210</ele>
        <time>2025-05-18T08:23:46.000Z</time>
      </trkpt>
      <trkpt lat="44.78187" lon="0.9732">
        <ele>210</ele>
        <time>2025-05-18T08:24:04.000Z</time>
      </trkpt>
      <trkpt lat="44.78181" lon="0.97354">
        <ele>210</ele>
        <time>2025-05-18T08:24:25.000Z</time>
      </trkpt>
      <trkpt lat="44.78173" lon="0.97384">
        <ele>210</ele>
        <time>2025-05-18T08:25:01.000Z</time>
      </trkpt>
      <trkpt lat="44.78166" lon="0.97414">
        <ele>210</ele>
        <time>2025-05-18T08:26:19.000Z</time>
      </trkpt>
      <trkpt lat="44.78154" lon="0.97442">
        <ele>210</ele>
        <time>2025-05-18T08:26:49.000Z</time>
      </trkpt>
      <trkpt lat="44.78147" lon="0.97472">
        <ele>210</ele>
        <time>2025-05-18T08:27:13.000Z</time>
      </trkpt>
      <trkpt lat="44.78143" lon="0.97506">
        <ele>210</ele>
        <time>2025-05-18T08:27:37.000Z</time>
      </trkpt>
      <trkpt lat="44.78141" lon="0.9754">
        <ele>210</ele>
        <time>2025-05-18T08:28:04.000Z</time>
      </trkpt>
      <trkpt lat="44.78138" lon="0.97573">
        <ele>209</ele>
        <time>2025-05-18T08:28:34.000Z</time>
      </trkpt>
      <trkpt lat="44.78138" lon="0.97605">
        <ele>209</ele>
        <time>2025-05-18T08:28:55.000Z</time>
      </trkpt>
      <trkpt lat="44.78139" lon="0.97641">
        <ele>209</ele>
        <time>2025-05-18T08:29:16.000Z</time>
      </trkpt>
      <trkpt lat="44.78135" lon="0.97674">
        <ele>208</ele>
        <time>2025-05-18T08:29:31.000Z</time>
      </trkpt>
      <trkpt lat="44.7813" lon="0.97704">
        <ele>208</ele>
        <time>2025-05-18T08:29:52.000Z</time>
      </trkpt>
      <trkpt lat="44.78129" lon="0.97736">
        <ele>207</ele>
        <time>2025-05-18T08:30:13.000Z</time>
      </trkpt>
      <trkpt lat="44.78123" lon="0.97765">
        <ele>206</ele>
        <time>2025-05-18T08:30:31.000Z</time>
      </trkpt>
      <trkpt lat="44.78102" lon="0.9776">
        <ele>205</ele>
        <time>2025-05-18T08:32:49.000Z</time>
      </trkpt>
      <trkpt lat="44.78084" lon="0.9774">
        <ele>205</ele>
        <time>2025-05-18T08:33:07.000Z</time>
      </trkpt>
      <trkpt lat="44.78068" lon="0.97717">
        <ele>204</ele>
        <time>2025-05-18T08:33:28.000Z</time>
      </trkpt>
      <trkpt lat="44.78052" lon="0.9769">
        <ele>203</ele>
        <time>2025-05-18T08:33:49.000Z</time>
      </trkpt>
      <trkpt lat="44.78037" lon="0.97667">
        <ele>203</ele>
        <time>2025-05-18T08:34:10.000Z</time>
      </trkpt>
      <trkpt lat="44.78024" lon="0.9764">
        <ele>202</ele>
        <time>2025-05-18T08:34:28.000Z</time>
      </trkpt>
      <trkpt lat="44.78013" lon="0.97614">
        <ele>202</ele>
        <time>2025-05-18T08:34:49.000Z</time>
      </trkpt>
      <trkpt lat="44.77998" lon="0.9759">
        <ele>201</ele>
        <time>2025-05-18T08:35:07.000Z</time>
      </trkpt>
      <trkpt lat="44.77975" lon="0.9758">
        <ele>201</ele>
        <time>2025-05-18T08:35:25.000Z</time>
      </trkpt>
      <trkpt lat="44.77951" lon="0.97569">
        <ele>200</ele>
        <time>2025-05-18T08:35:46.000Z</time>
      </trkpt>
      <trkpt lat="44.77928" lon="0.97555">
        <ele>200</ele>
        <time>2025-05-18T08:36:07.000Z</time>
      </trkpt>
      <trkpt lat="44.77909" lon="0.97537">
        <ele>199</ele>
        <time>2025-05-18T08:36:25.000Z</time>
      </trkpt>
      <trkpt lat="44.77892" lon="0.97518">
        <ele>199</ele>
        <time>2025-05-18T08:37:07.000Z</time>
      </trkpt>
      <trkpt lat="44.77869" lon="0.97517">
        <ele>198</ele>
        <time>2025-05-18T08:37:53.000Z</time>
      </trkpt>
      <trkpt lat="44.77844" lon="0.97523">
        <ele>198</ele>
        <time>2025-05-18T08:38:17.000Z</time>
      </trkpt>
      <trkpt lat="44.7782" lon="0.97535">
        <ele>197</ele>
        <time>2025-05-18T08:38:44.000Z</time>
      </trkpt>
      <trkpt lat="44.77797" lon="0.9754">
        <ele>197</ele>
        <time>2025-05-18T08:39:08.000Z</time>
      </trkpt>
      <trkpt lat="44.77774" lon="0.97535">
        <ele>197</ele>
        <time>2025-05-18T08:39:35.000Z</time>
      </trkpt>
      <trkpt lat="44.77754" lon="0.97537">
        <ele>196</ele>
        <time>2025-05-18T08:39:56.000Z</time>
      </trkpt>
      <trkpt lat="44.77756" lon="0.97564">
        <ele>196</ele>
        <time>2025-05-18T08:40:21.000Z</time>
      </trkpt>
      <trkpt lat="44.77762" lon="0.97596">
        <ele>196</ele>
        <time>2025-05-18T08:40:42.000Z</time>
      </trkpt>
      <trkpt lat="44.77767" lon="0.9763">
        <ele>196</ele>
        <time>2025-05-18T08:41:03.000Z</time>
      </trkpt>
      <trkpt lat="44.77767" lon="0.97662">
        <ele>196</ele>
        <time>2025-05-18T08:41:24.000Z</time>
      </trkpt>
      <trkpt lat="44.77758" lon="0.97691">
        <ele>197</ele>
        <time>2025-05-18T08:41:42.000Z</time>
      </trkpt>
      <trkpt lat="44.77747" lon="0.97718">
        <ele>197</ele>
        <time>2025-05-18T08:42:06.000Z</time>
      </trkpt>
      <trkpt lat="44.77723" lon="0.97727">
        <ele>197</ele>
        <time>2025-05-18T08:42:27.000Z</time>
      </trkpt>
      <trkpt lat="44.777" lon="0.97734">
        <ele>197</ele>
        <time>2025-05-18T08:42:48.000Z</time>
      </trkpt>
      <trkpt lat="44.77676" lon="0.9774">
        <ele>198</ele>
        <time>2025-05-18T08:43:09.000Z</time>
      </trkpt>
      <trkpt lat="44.77654" lon="0.97756">
        <ele>198</ele>
        <time>2025-05-18T08:43:27.000Z</time>
      </trkpt>
      <trkpt lat="44.77633" lon="0.97777">
        <ele>198</ele>
        <time>2025-05-18T08:43:45.000Z</time>
      </trkpt>
      <trkpt lat="44.77611" lon="0.97794">
        <ele>198</ele>
        <time>2025-05-18T08:44:06.000Z</time>
      </trkpt>
      <trkpt lat="44.7759" lon="0.97808">
        <ele>197</ele>
        <time>2025-05-18T08:44:27.000Z</time>
      </trkpt>
      <trkpt lat="44.77567" lon="0.97818">
        <ele>197</ele>
        <time>2025-05-18T08:44:54.000Z</time>
      </trkpt>
      <trkpt lat="44.77544" lon="0.97829">
        <ele>197</ele>
        <time>2025-05-18T08:45:12.000Z</time>
      </trkpt>
      <trkpt lat="44.77519" lon="0.97836">
        <ele>197</ele>
        <time>2025-05-18T08:45:33.000Z</time>
      </trkpt>
      <trkpt lat="44.77495" lon="0.97844">
        <ele>196</ele>
        <time>2025-05-18T08:45:57.000Z</time>
      </trkpt>
      <trkpt lat="44.77477" lon="0.97864">
        <ele>196</ele>
        <time>2025-05-18T08:46:15.000Z</time>
      </trkpt>
      <trkpt lat="44.7746" lon="0.9789">
        <ele>196</ele>
        <time>2025-05-18T08:46:33.000Z</time>
      </trkpt>
      <trkpt lat="44.77443" lon="0.97907">
        <ele>195</ele>
        <time>2025-05-18T08:46:57.000Z</time>
      </trkpt>
      <trkpt lat="44.77425" lon="0.97894">
        <ele>195</ele>
        <time>2025-05-18T08:48:48.000Z</time>
      </trkpt>
      <trkpt lat="44.77402" lon="0.97889">
        <ele>195</ele>
        <time>2025-05-18T08:49:09.000Z</time>
      </trkpt>
      <trkpt lat="44.77378" lon="0.97893">
        <ele>195</ele>
        <time>2025-05-18T08:49:30.000Z</time>
      </trkpt>
      <trkpt lat="44.77354" lon="0.97898">
        <ele>194</ele>
        <time>2025-05-18T08:49:54.000Z</time>
      </trkpt>
      <trkpt lat="44.77329" lon="0.97911">
        <ele>194</ele>
        <time>2025-05-18T08:50:15.000Z</time>
      </trkpt>
      <trkpt lat="44.77306" lon="0.97923">
        <ele>194</ele>
        <time>2025-05-18T08:50:39.000Z</time>
      </trkpt>
      <trkpt lat="44.77284" lon="0.9792">
        <ele>194</ele>
        <time>2025-05-18T08:51:00.000Z</time>
      </trkpt>
      <trkpt lat="44.77265" lon="0.97904">
        <ele>194</ele>
        <time>2025-05-18T08:51:18.000Z</time>
      </trkpt>
      <trkpt lat="44.77248" lon="0.97884">
        <ele>194</ele>
        <time>2025-05-18T08:51:36.000Z</time>
      </trkpt>
      <trkpt lat="44.77229" lon="0.97871">
        <ele>194</ele>
        <time>2025-05-18T08:51:54.000Z</time>
      </trkpt>
      <trkpt lat="44.77212" lon="0.97887">
        <ele>194</ele>
        <time>2025-05-18T08:53:21.000Z</time>
      </trkpt>
      <trkpt lat="44.77201" lon="0.97917">
        <ele>195</ele>
        <time>2025-05-18T08:53:48.000Z</time>
      </trkpt>
      <trkpt lat="44.77191" lon="0.97946">
        <ele>195</ele>
        <time>2025-05-18T08:54:09.000Z</time>
      </trkpt>
      <trkpt lat="44.77188" lon="0.97977">
        <ele>196</ele>
        <time>2025-05-18T08:54:39.000Z</time>
      </trkpt>
      <trkpt lat="44.77173" lon="0.97996">
        <ele>197</ele>
        <time>2025-05-18T08:58:28.000Z</time>
      </trkpt>
      <trkpt lat="44.77171" lon="0.98026">
        <ele>198</ele>
        <time>2025-05-18T08:58:55.000Z</time>
      </trkpt>
      <trkpt lat="44.77172" lon="0.98059">
        <ele>198</ele>
        <time>2025-05-18T08:59:25.000Z</time>
      </trkpt>
      <trkpt lat="44.77171" lon="0.98095">
        <ele>199</ele>
        <time>2025-05-18T08:59:58.000Z</time>
      </trkpt>
      <trkpt lat="44.77178" lon="0.9813">
        <ele>199</ele>
        <time>2025-05-18T09:00:16.000Z</time>
      </trkpt>
      <trkpt lat="44.77189" lon="0.98161">
        <ele>200</ele>
        <time>2025-05-18T09:00:37.000Z</time>
      </trkpt>
      <trkpt lat="44.77191" lon="0.98194">
        <ele>201</ele>
        <time>2025-05-18T09:01:07.000Z</time>
      </trkpt>
      <trkpt lat="44.77192" lon="0.98226">
        <ele>201</ele>
        <time>2025-05-18T09:01:31.000Z</time>
      </trkpt>
      <trkpt lat="44.77208" lon="0.9825">
        <ele>202</ele>
        <time>2025-05-18T09:03:28.000Z</time>
      </trkpt>
      <trkpt lat="44.77229" lon="0.98264">
        <ele>203</ele>
        <time>2025-05-18T09:03:52.000Z</time>
      </trkpt>
      <trkpt lat="44.7725" lon="0.98278">
        <ele>203</ele>
        <time>2025-05-18T09:04:07.000Z</time>
      </trkpt>
      <trkpt lat="44.77272" lon="0.98287">
        <ele>204</ele>
        <time>2025-05-18T09:04:34.000Z</time>
      </trkpt>
      <trkpt lat="44.77295" lon="0.98287">
        <ele>205</ele>
        <time>2025-05-18T09:04:52.000Z</time>
      </trkpt>
      <trkpt lat="44.77317" lon="0.98275">
        <ele>207</ele>
        <time>2025-05-18T09:05:10.000Z</time>
      </trkpt>
      <trkpt lat="44.77335" lon="0.98257">
        <ele>208</ele>
        <time>2025-05-18T09:05:37.000Z</time>
      </trkpt>
      <trkpt lat="44.77356" lon="0.98255">
        <ele>209</ele>
        <time>2025-05-18T09:09:04.000Z</time>
      </trkpt>
      <trkpt lat="44.77375" lon="0.98274">
        <ele>210</ele>
        <time>2025-05-18T09:09:43.000Z</time>
      </trkpt>
      <trkpt lat="44.77388" lon="0.98299">
        <ele>211</ele>
        <time>2025-05-18T09:10:04.000Z</time>
      </trkpt>
      <trkpt lat="44.77396" lon="0.98329">
        <ele>212</ele>
        <time>2025-05-18T09:10:31.000Z</time>
      </trkpt>
      <trkpt lat="44.77399" lon="0.98363">
        <ele>213</ele>
        <time>2025-05-18T09:10:55.000Z</time>
      </trkpt>
      <trkpt lat="44.77402" lon="0.98397">
        <ele>214</ele>
        <time>2025-05-18T09:11:19.000Z</time>
      </trkpt>
      <trkpt lat="44.77403" lon="0.98432">
        <ele>214</ele>
        <time>2025-05-18T09:11:43.000Z</time>
      </trkpt>
      <trkpt lat="44.77403" lon="0.98464">
        <ele>215</ele>
        <time>2025-05-18T09:12:01.000Z</time>
      </trkpt>
      <trkpt lat="44.77398" lon="0.98496">
        <ele>215</ele>
        <time>2025-05-18T09:12:19.000Z</time>
      </trkpt>
      <trkpt lat="44.77392" lon="0.98528">
        <ele>216</ele>
        <time>2025-05-18T09:12:37.000Z</time>
      </trkpt>
      <trkpt lat="44.77387" lon="0.9856">
        <ele>216</ele>
        <time>2025-05-18T09:12:52.000Z</time>
      </trkpt>
      <trkpt lat="44.77387" lon="0.98592">
        <ele>217</ele>
        <time>2025-05-18T09:13:10.000Z</time>
      </trkpt>
      <trkpt lat="44.77386" lon="0.98624">
        <ele>217</ele>
        <time>2025-05-18T09:13:28.000Z</time>
      </trkpt>
      <trkpt lat="44.77384" lon="0.98657">
        <ele>218</ele>
        <time>2025-05-18T09:13:46.000Z</time>
      </trkpt>
      <trkpt lat="44.77382" lon="0.9869">
        <ele>218</ele>
        <time>2025-05-18T09:14:04.000Z</time>
      </trkpt>
      <trkpt lat="44.77381" lon="0.98722">
        <ele>218</ele>
        <time>2025-05-18T09:14:22.000Z</time>
      </trkpt>
      <trkpt lat="44.77384" lon="0.98753">
        <ele>219</ele>
        <time>2025-05-18T09:14:40.000Z</time>
      </trkpt>
      <trkpt lat="44.77391" lon="0.98785">
        <ele>219</ele>
        <time>2025-05-18T09:14:58.000Z</time>
      </trkpt>
      <trkpt lat="44.77397" lon="0.98816">
        <ele>220</ele>
        <time>2025-05-18T09:15:16.000Z</time>
      </trkpt>
      <trkpt lat="44.77408" lon="0.98842">
        <ele>221</ele>
        <time>2025-05-18T09:15:49.000Z</time>
      </trkpt>
      <trkpt lat="44.77429" lon="0.98853">
        <ele>222</ele>
        <time>2025-05-18T09:16:22.000Z</time>
      </trkpt>
      <trkpt lat="44.77453" lon="0.98851">
        <ele>222</ele>
        <time>2025-05-18T09:16:46.000Z</time>
      </trkpt>
      <trkpt lat="44.77475" lon="0.98844">
        <ele>223</ele>
        <time>2025-05-18T09:17:04.000Z</time>
      </trkpt>
      <trkpt lat="44.77497" lon="0.98835">
        <ele>224</ele>
        <time>2025-05-18T09:17:25.000Z</time>
      </trkpt>
      <trkpt lat="44.7752" lon="0.98828">
        <ele>224</ele>
        <time>2025-05-18T09:17:46.000Z</time>
      </trkpt>
      <trkpt lat="44.77542" lon="0.98828">
        <ele>225</ele>
        <time>2025-05-18T09:18:07.000Z</time>
      </trkpt>
      <trkpt lat="44.77562" lon="0.98846">
        <ele>225</ele>
        <time>2025-05-18T09:18:28.000Z</time>
      </trkpt>
      <trkpt lat="44.77579" lon="0.9887">
        <ele>226</ele>
        <time>2025-05-18T09:18:52.000Z</time>
      </trkpt>
      <trkpt lat="44.77596" lon="0.98895">
        <ele>226</ele>
        <time>2025-05-18T09:19:13.000Z</time>
      </trkpt>
      <trkpt lat="44.77608" lon="0.98926">
        <ele>226</ele>
        <time>2025-05-18T09:19:31.000Z</time>
      </trkpt>
      <trkpt lat="44.77625" lon="0.98947">
        <ele>227</ele>
        <time>2025-05-18T09:19:52.000Z</time>
      </trkpt>
      <trkpt lat="44.77645" lon="0.98944">
        <ele>227</ele>
        <time>2025-05-18T09:20:28.000Z</time>
      </trkpt>
      <trkpt lat="44.77658" lon="0.98919">
        <ele>228</ele>
        <time>2025-05-18T09:20:58.000Z</time>
      </trkpt>
      <trkpt lat="44.77665" lon="0.98892">
        <ele>228</ele>
        <time>2025-05-18T09:21:22.000Z</time>
      </trkpt>
      <trkpt lat="44.77679" lon="0.98887">
        <ele>229</ele>
        <time>2025-05-18T09:23:07.000Z</time>
      </trkpt>
      <trkpt lat="44.77664" lon="0.98883">
        <ele>230</ele>
        <time>2025-05-18T09:24:10.000Z</time>
      </trkpt>
      <trkpt lat="44.7768" lon="0.98884">
        <ele>231</ele>
        <time>2025-05-18T09:24:27.000Z</time>
      </trkpt>
      <trkpt lat="44.77694" lon="0.98904">
        <ele>232</ele>
        <time>2025-05-18T09:25:12.000Z</time>
      </trkpt>
      <trkpt lat="44.77686" lon="0.98929">
        <ele>233</ele>
        <time>2025-05-18T09:26:25.000Z</time>
      </trkpt>
      <trkpt lat="44.77701" lon="0.98947">
        <ele>235</ele>
        <time>2025-05-18T09:27:22.000Z</time>
      </trkpt>
      <trkpt lat="44.77721" lon="0.98942">
        <ele>237</ele>
        <time>2025-05-18T09:27:43.000Z</time>
      </trkpt>
      <trkpt lat="44.7774" lon="0.98957">
        <ele>239</ele>
        <time>2025-05-18T09:28:28.000Z</time>
      </trkpt>
      <trkpt lat="44.77761" lon="0.98961">
        <ele>241</ele>
        <time>2025-05-18T09:28:52.000Z</time>
      </trkpt>
      <trkpt lat="44.77769" lon="0.9898">
        <ele>242</ele>
        <time>2025-05-18T09:29:40.000Z</time>
      </trkpt>
      <trkpt lat="44.77769" lon="0.98957">
        <ele>244</ele>
        <time>2025-05-18T09:31:04.000Z</time>
      </trkpt>
      <trkpt lat="44.77753" lon="0.98939">
        <ele>245</ele>
        <time>2025-05-18T09:31:28.000Z</time>
      </trkpt>
      <trkpt lat="44.77736" lon="0.98942">
        <ele>246</ele>
        <time>2025-05-18T09:32:13.000Z</time>
      </trkpt>
      <trkpt lat="44.77752" lon="0.98958">
        <ele>246</ele>
        <time>2025-05-18T09:34:40.000Z</time>
      </trkpt>
      <trkpt lat="44.77771" lon="0.98964">
        <ele>247</ele>
        <time>2025-05-18T09:35:13.000Z</time>
      </trkpt>
      <trkpt lat="44.77767" lon="0.98991">
        <ele>248</ele>
        <time>2025-05-18T09:35:49.000Z</time>
      </trkpt>
      <trkpt lat="44.7776" lon="0.99021">
        <ele>249</ele>
        <time>2025-05-18T09:36:16.000Z</time>
      </trkpt>
      <trkpt lat="44.77767" lon="0.99043">
        <ele>249</ele>
        <time>2025-05-18T09:36:49.000Z</time>
      </trkpt>
      <trkpt lat="44.77764" lon="0.99028">
        <ele>250</ele>
        <time>2025-05-18T09:38:43.000Z</time>
      </trkpt>
      <trkpt lat="44.77773" lon="0.99049">
        <ele>251</ele>
        <time>2025-05-18T09:40:19.000Z</time>
      </trkpt>
      <trkpt lat="44.77781" lon="0.99083">
        <ele>251</ele>
        <time>2025-05-18T09:40:43.000Z</time>
      </trkpt>
      <trkpt lat="44.77786" lon="0.9912">
        <ele>252</ele>
        <time>2025-05-18T09:41:10.000Z</time>
      </trkpt>
      <trkpt lat="44.77791" lon="0.99152">
        <ele>252</ele>
        <time>2025-05-18T09:41:28.000Z</time>
      </trkpt>
      <trkpt lat="44.77795" lon="0.99184">
        <ele>253</ele>
        <time>2025-05-18T09:41:49.000Z</time>
      </trkpt>
      <trkpt lat="44.77792" lon="0.99216">
        <ele>253</ele>
        <time>2025-05-18T09:42:13.000Z</time>
      </trkpt>
      <trkpt lat="44.77786" lon="0.99246">
        <ele>253</ele>
        <time>2025-05-18T09:42:31.000Z</time>
      </trkpt>
      <trkpt lat="44.77778" lon="0.99278">
        <ele>254</ele>
        <time>2025-05-18T09:42:52.000Z</time>
      </trkpt>
      <trkpt lat="44.7778" lon="0.9931">
        <ele>254</ele>
        <time>2025-05-18T09:43:13.000Z</time>
      </trkpt>
      <trkpt lat="44.77785" lon="0.99341">
        <ele>254</ele>
        <time>2025-05-18T09:43:35.000Z</time>
      </trkpt>
      <trkpt lat="44.77774" lon="0.99371">
        <ele>254</ele>
        <time>2025-05-18T09:44:02.000Z</time>
      </trkpt>
      <trkpt lat="44.77757" lon="0.99397">
        <ele>255</ele>
        <time>2025-05-18T09:44:23.000Z</time>
      </trkpt>
      <trkpt lat="44.77752" lon="0.99429">
        <ele>255</ele>
        <time>2025-05-18T09:44:44.000Z</time>
      </trkpt>
      <trkpt lat="44.77756" lon="0.99462">
        <ele>255</ele>
        <time>2025-05-18T09:45:02.000Z</time>
      </trkpt>
      <trkpt lat="44.77759" lon="0.99496">
        <ele>255</ele>
        <time>2025-05-18T09:45:23.000Z</time>
      </trkpt>
      <trkpt lat="44.77761" lon="0.99529">
        <ele>255</ele>
        <time>2025-05-18T09:45:44.000Z</time>
      </trkpt>
      <trkpt lat="44.77762" lon="0.99563">
        <ele>255</ele>
        <time>2025-05-18T09:46:05.000Z</time>
      </trkpt>
      <trkpt lat="44.7776" lon="0.99596">
        <ele>255</ele>
        <time>2025-05-18T09:46:26.000Z</time>
      </trkpt>
      <trkpt lat="44.77752" lon="0.99627">
        <ele>255</ele>
        <time>2025-05-18T09:46:44.000Z</time>
      </trkpt>
      <trkpt lat="44.77739" lon="0.99655">
        <ele>255</ele>
        <time>2025-05-18T09:47:05.000Z</time>
      </trkpt>
      <trkpt lat="44.77724" lon="0.9968">
        <ele>255</ele>
        <time>2025-05-18T09:47:23.000Z</time>
      </trkpt>
      <trkpt lat="44.77719" lon="0.99714">
        <ele>255</ele>
        <time>2025-05-18T09:47:41.000Z</time>
      </trkpt>
      <trkpt lat="44.77714" lon="0.99746">
        <ele>255</ele>
        <time>2025-05-18T09:48:02.000Z</time>
      </trkpt>
      <trkpt lat="44.7771" lon="0.9978">
        <ele>255</ele>
        <time>2025-05-18T09:48:20.000Z</time>
      </trkpt>
      <trkpt lat="44.77709" lon="0.99816">
        <ele>255</ele>
        <time>2025-05-18T09:48:41.000Z</time>
      </trkpt>
      <trkpt lat="44.77709" lon="0.99851">
        <ele>255</ele>
        <time>2025-05-18T09:49:02.000Z</time>
      </trkpt>
      <trkpt lat="44.7771" lon="0.99886">
        <ele>255</ele>
        <time>2025-05-18T09:49:23.000Z</time>
      </trkpt>
      <trkpt lat="44.77708" lon="0.9992">
        <ele>255</ele>
        <time>2025-05-18T09:49:41.000Z</time>
      </trkpt>
      <trkpt lat="44.77708" lon="0.99954">
        <ele>255</ele>
        <time>2025-05-18T09:50:02.000Z</time>
      </trkpt>
      <trkpt lat="44.77703" lon="0.99985">
        <ele>255</ele>
        <time>2025-05-18T09:50:20.000Z</time>
      </trkpt>
      <trkpt lat="44.77697" lon="1.00016">
        <ele>255</ele>
        <time>2025-05-18T09:50:38.000Z</time>
      </trkpt>
      <trkpt lat="44.77688" lon="1.00048">
        <ele>255</ele>
        <time>2025-05-18T09:50:59.000Z</time>
      </trkpt>
      <trkpt lat="44.77677" lon="1.00078">
        <ele>255</ele>
        <time>2025-05-18T09:51:20.000Z</time>
      </trkpt>
      <trkpt lat="44.77668" lon="1.00106">
        <ele>255</ele>
        <time>2025-05-18T09:51:38.000Z</time>
      </trkpt>
      <trkpt lat="44.77657" lon="1.00135">
        <ele>254</ele>
        <time>2025-05-18T09:51:56.000Z</time>
      </trkpt>
      <trkpt lat="44.77647" lon="1.00168">
        <ele>254</ele>
        <time>2025-05-18T09:52:17.000Z</time>
      </trkpt>
      <trkpt lat="44.77637" lon="1.00201">
        <ele>254</ele>
        <time>2025-05-18T09:52:38.000Z</time>
      </trkpt>
      <trkpt lat="44.77623" lon="1.00227">
        <ele>254</ele>
        <time>2025-05-18T09:52:59.000Z</time>
      </trkpt>
      <trkpt lat="44.77606" lon="1.0025">
        <ele>254</ele>
        <time>2025-05-18T09:54:23.000Z</time>
      </trkpt>
      <trkpt lat="44.77597" lon="1.00279">
        <ele>254</ele>
        <time>2025-05-18T09:54:41.000Z</time>
      </trkpt>
      <trkpt lat="44.77586" lon="1.0031">
        <ele>254</ele>
        <time>2025-05-18T09:55:02.000Z</time>
      </trkpt>
      <trkpt lat="44.77572" lon="1.00337">
        <ele>253</ele>
        <time>2025-05-18T09:55:23.000Z</time>
      </trkpt>
      <trkpt lat="44.7756" lon="1.00364">
        <ele>253</ele>
        <time>2025-05-18T09:55:44.000Z</time>
      </trkpt>
      <trkpt lat="44.77569" lon="1.00393">
        <ele>253</ele>
        <time>2025-05-18T09:56:11.000Z</time>
      </trkpt>
      <trkpt lat="44.77583" lon="1.0042">
        <ele>253</ele>
        <time>2025-05-18T09:56:32.000Z</time>
      </trkpt>
      <trkpt lat="44.77595" lon="1.00443">
        <ele>252</ele>
        <time>2025-05-18T09:57:02.000Z</time>
      </trkpt>
      <trkpt lat="44.77586" lon="1.00469">
        <ele>252</ele>
        <time>2025-05-18T09:57:17.000Z</time>
      </trkpt>
      <trkpt lat="44.77573" lon="1.00492">
        <ele>252</ele>
        <time>2025-05-18T09:57:44.000Z</time>
      </trkpt>
      <trkpt lat="44.7758" lon="1.00519">
        <ele>252</ele>
        <time>2025-05-18T09:58:11.000Z</time>
      </trkpt>
      <trkpt lat="44.77599" lon="1.00538">
        <ele>251</ele>
        <time>2025-05-18T09:58:32.000Z</time>
      </trkpt>
      <trkpt lat="44.77618" lon="1.00559">
        <ele>251</ele>
        <time>2025-05-18T09:58:55.000Z</time>
      </trkpt>
      <trkpt lat="44.77632" lon="1.00585">
        <ele>251</ele>
        <time>2025-05-18T09:59:13.000Z</time>
      </trkpt>
      <trkpt lat="44.77641" lon="1.00618">
        <ele>250</ele>
        <time>2025-05-18T09:59:28.000Z</time>
      </trkpt>
      <trkpt lat="44.77639" lon="1.00651">
        <ele>250</ele>
        <time>2025-05-18T10:00:03.000Z</time>
      </trkpt>
      <trkpt lat="44.77632" lon="1.0068">
        <ele>250</ele>
        <time>2025-05-18T10:00:18.000Z</time>
      </trkpt>
      <trkpt lat="44.77638" lon="1.00711">
        <ele>250</ele>
        <time>2025-05-18T10:00:38.000Z</time>
      </trkpt>
      <trkpt lat="44.77637" lon="1.00742">
        <ele>249</ele>
        <time>2025-05-18T10:00:59.000Z</time>
      </trkpt>
      <trkpt lat="44.77627" lon="1.00771">
        <ele>249</ele>
        <time>2025-05-18T10:01:14.000Z</time>
      </trkpt>
      <trkpt lat="44.77646" lon="1.00796">
        <ele>249</ele>
        <time>2025-05-18T10:01:53.000Z</time>
      </trkpt>
      <trkpt lat="44.77668" lon="1.00783">
        <ele>248</ele>
        <time>2025-05-18T10:02:26.000Z</time>
      </trkpt>
      <trkpt lat="44.77689" lon="1.00793">
        <ele>247</ele>
        <time>2025-05-18T10:03:17.000Z</time>
      </trkpt>
    </trkseg>
  </trk>
</gpx>